sensor_id;sensor_type;location;lat;lon;timestamp;P1;durP1;ratioP1;P2;durP2;ratioP2
8592;SDS011;4334;49.982;8.398;2023-02-27T00:01:58;3.10;;;1.67;;
8592;SDS011;4334;49.982;8.398;2023-02-27T00:04:25;2.23;;;1.63;;
8592;SDS011;4334;49.982;8.398;2023-02-27T00:06:53;2.60;;;1.70;;
8592;SDS011;4334;49.982;8.398;2023-02-27T00:09:19;2.87;;;1.90;;
8592;SDS011;4334;49.982;8.398;2023-02-27T00:11:46;3.10;;;1.53;;
8592;SDS011;4334;49.982;8.398;2023-02-27T00:14:13;4.70;;;1.97;;
8592;SDS011;4334;49.982;8.398;2023-02-27T00:16:39;3.27;;;1.60;;
8592;SDS011;4334;49.982;8.398;2023-02-27T00:19:08;3.73;;;1.60;;
8592;SDS011;4334;49.982;8.398;2023-02-27T00:21:35;4.73;;;1.70;;
8592;SDS011;4334;49.982;8.398;2023-02-27T00:24:02;3.33;;;1.80;;
8592;SDS011;4334;49.982;8.398;2023-02-27T00:26:29;1.60;;;1.50;;
8592;SDS011;4334;49.982;8.398;2023-02-27T00:28:55;4.43;;;1.83;;
8592;SDS011;4334;49.982;8.398;2023-02-27T00:31:22;3.00;;;1.60;;
8592;SDS011;4334;49.982;8.398;2023-02-27T00:33:49;3.13;;;1.70;;
8592;SDS011;4334;49.982;8.398;2023-02-27T00:36:17;2.03;;;1.40;;
8592;SDS011;4334;49.982;8.398;2023-02-27T00:38:43;2.33;;;1.50;;
8592;SDS011;4334;49.982;8.398;2023-02-27T00:41:10;1.77;;;1.50;;
8592;SDS011;4334;49.982;8.398;2023-02-27T00:43:37;7.53;;;1.70;;
8592;SDS011;4334;49.982;8.398;2023-02-27T00:46:04;2.70;;;1.50;;
8592;SDS011;4334;49.982;8.398;2023-02-27T00:48:31;2.23;;;1.70;;
8592;SDS011;4334;49.982;8.398;2023-02-27T00:50:58;2.70;;;1.60;;
8592;SDS011;4334;49.982;8.398;2023-02-27T00:53:27;3.57;;;1.67;;
8592;SDS011;4334;49.982;8.398;2023-02-27T00:55:53;3.03;;;1.63;;
8592;SDS011;4334;49.982;8.398;2023-02-27T00:58:20;3.73;;;1.73;;
8592;SDS011;4334;49.982;8.398;2023-02-27T01:00:47;5.13;;;1.77;;
8592;SDS011;4334;49.982;8.398;2023-02-27T01:03:14;3.63;;;1.87;;
8592;SDS011;4334;49.982;8.398;2023-02-27T01:05:41;4.27;;;2.10;;
8592;SDS011;4334;49.982;8.398;2023-02-27T01:08:07;2.40;;;1.70;;
8592;SDS011;4334;49.982;8.398;2023-02-27T01:10:36;6.10;;;1.80;;
8592;SDS011;4334;49.982;8.398;2023-02-27T01:13:02;3.83;;;1.77;;
8592;SDS011;4334;49.982;8.398;2023-02-27T01:15:29;4.70;;;2.00;;
8592;SDS011;4334;49.982;8.398;2023-02-27T01:17:56;5.17;;;1.67;;
8592;SDS011;4334;49.982;8.398;2023-02-27T01:20:22;3.37;;;2.10;;
8592;SDS011;4334;49.982;8.398;2023-02-27T01:22:49;3.77;;;1.70;;
8592;SDS011;4334;49.982;8.398;2023-02-27T01:25:16;3.87;;;1.90;;
8592;SDS011;4334;49.982;8.398;2023-02-27T01:27:44;3.20;;;1.80;;
8592;SDS011;4334;49.982;8.398;2023-02-27T01:30:11;2.50;;;1.80;;
8592;SDS011;4334;49.982;8.398;2023-02-27T01:32:40;3.63;;;1.70;;
8592;SDS011;4334;49.982;8.398;2023-02-27T01:35:07;3.83;;;1.70;;
8592;SDS011;4334;49.982;8.398;2023-02-27T01:37:34;2.33;;;1.70;;
8592;SDS011;4334;49.982;8.398;2023-02-27T01:40:01;2.10;;;1.70;;
8592;SDS011;4334;49.982;8.398;2023-02-27T01:42:29;3.10;;;1.70;;
8592;SDS011;4334;49.982;8.398;2023-02-27T01:48:04;3.10;;;1.60;;
8592;SDS011;4334;49.982;8.398;2023-02-27T01:50:36;3.43;;;1.53;;
8592;SDS011;4334;49.982;8.398;2023-02-27T01:53:06;2.37;;;1.50;;
8592;SDS011;4334;49.982;8.398;2023-02-27T01:55:35;2.87;;;1.70;;
8592;SDS011;4334;49.982;8.398;2023-02-27T01:58:04;2.43;;;1.60;;
8592;SDS011;4334;49.982;8.398;2023-02-27T02:00:34;2.53;;;1.60;;
8592;SDS011;4334;49.982;8.398;2023-02-27T02:03:03;4.03;;;1.67;;
8592;SDS011;4334;49.982;8.398;2023-02-27T02:05:36;2.70;;;1.50;;
8592;SDS011;4334;49.982;8.398;2023-02-27T02:08:03;3.47;;;1.50;;
8592;SDS011;4334;49.982;8.398;2023-02-27T02:10:31;2.33;;;1.60;;
8592;SDS011;4334;49.982;8.398;2023-02-27T02:12:58;2.97;;;1.80;;
8592;SDS011;4334;49.982;8.398;2023-02-27T02:15:27;1.73;;;1.60;;
8592;SDS011;4334;49.982;8.398;2023-02-27T02:18:02;4.10;;;1.70;;
8592;SDS011;4334;49.982;8.398;2023-02-27T02:20:47;4.20;;;1.60;;
8592;SDS011;4334;49.982;8.398;2023-02-27T02:26:46;4.67;;;1.90;;
8592;SDS011;4334;49.982;8.398;2023-02-27T02:29:33;1.77;;;1.40;;
8592;SDS011;4334;49.982;8.398;2023-02-27T02:32:39;1.70;;;1.43;;
8592;SDS011;4334;49.982;8.398;2023-02-27T02:41:50;4.20;;;1.60;;
8592;SDS011;4334;49.982;8.398;2023-02-27T02:44:28;1.80;;;1.50;;
8592;SDS011;4334;49.982;8.398;2023-02-27T02:47:04;4.80;;;1.90;;
8592;SDS011;4334;49.982;8.398;2023-02-27T02:49:40;3.93;;;1.60;;
8592;SDS011;4334;49.982;8.398;2023-02-27T02:52:17;2.07;;;1.57;;
8592;SDS011;4334;49.982;8.398;2023-02-27T02:54:55;4.27;;;1.60;;
8592;SDS011;4334;49.982;8.398;2023-02-27T02:57:29;3.30;;;1.80;;
8592;SDS011;4334;49.982;8.398;2023-02-27T03:00:02;5.07;;;1.90;;
8592;SDS011;4334;49.982;8.398;2023-02-27T03:02:34;1.70;;;1.50;;
8592;SDS011;4334;49.982;8.398;2023-02-27T03:05:05;2.07;;;1.57;;
8592;SDS011;4334;49.982;8.398;2023-02-27T03:07:35;2.23;;;1.70;;
8592;SDS011;4334;49.982;8.398;2023-02-27T03:10:09;2.50;;;1.60;;
8592;SDS011;4334;49.982;8.398;2023-02-27T03:12:40;3.27;;;1.40;;
8592;SDS011;4334;49.982;8.398;2023-02-27T03:15:11;3.10;;;1.60;;
8592;SDS011;4334;49.982;8.398;2023-02-27T03:17:42;2.30;;;1.60;;
8592;SDS011;4334;49.982;8.398;2023-02-27T03:20:14;2.07;;;1.53;;
8592;SDS011;4334;49.982;8.398;2023-02-27T03:22:46;3.07;;;1.63;;
8592;SDS011;4334;49.982;8.398;2023-02-27T03:25:17;3.87;;;1.40;;
8592;SDS011;4334;49.982;8.398;2023-02-27T03:27:46;3.70;;;1.80;;
8592;SDS011;4334;49.982;8.398;2023-02-27T03:30:19;1.83;;;1.50;;
8592;SDS011;4334;49.982;8.398;2023-02-27T03:32:54;1.93;;;1.50;;
8592;SDS011;4334;49.982;8.398;2023-02-27T03:35:25;4.13;;;2.00;;
8592;SDS011;4334;49.982;8.398;2023-02-27T03:38:01;3.00;;;1.67;;
8592;SDS011;4334;49.982;8.398;2023-02-27T03:40:35;2.13;;;1.60;;
8592;SDS011;4334;49.982;8.398;2023-02-27T03:43:06;2.73;;;1.67;;
8592;SDS011;4334;49.982;8.398;2023-02-27T03:45:44;3.23;;;1.63;;
8592;SDS011;4334;49.982;8.398;2023-02-27T03:48:17;2.50;;;1.47;;
8592;SDS011;4334;49.982;8.398;2023-02-27T03:50:44;1.97;;;1.60;;
8592;SDS011;4334;49.982;8.398;2023-02-27T03:53:12;2.83;;;1.50;;
8592;SDS011;4334;49.982;8.398;2023-02-27T03:55:47;1.63;;;1.30;;
8592;SDS011;4334;49.982;8.398;2023-02-27T03:58:16;2.77;;;1.60;;
8592;SDS011;4334;49.982;8.398;2023-02-27T04:00:43;1.93;;;1.30;;
8592;SDS011;4334;49.982;8.398;2023-02-27T04:03:10;5.27;;;1.60;;
8592;SDS011;4334;49.982;8.398;2023-02-27T04:05:37;5.43;;;1.90;;
8592;SDS011;4334;49.982;8.398;2023-02-27T04:08:08;2.47;;;1.60;;
8592;SDS011;4334;49.982;8.398;2023-02-27T04:11:10;1.80;;;1.40;;
8592;SDS011;4334;49.982;8.398;2023-02-27T04:17:11;4.13;;;1.70;;
8592;SDS011;4334;49.982;8.398;2023-02-27T04:19:47;4.07;;;1.60;;
8592;SDS011;4334;49.982;8.398;2023-02-27T04:22:27;1.70;;;1.40;;
8592;SDS011;4334;49.982;8.398;2023-02-27T04:25:04;3.10;;;1.80;;
8592;SDS011;4334;49.982;8.398;2023-02-27T04:27:45;4.40;;;1.53;;
8592;SDS011;4334;49.982;8.398;2023-02-27T04:30:24;5.00;;;1.77;;
8592;SDS011;4334;49.982;8.398;2023-02-27T04:32:56;5.23;;;1.70;;
8592;SDS011;4334;49.982;8.398;2023-02-27T04:35:28;2.73;;;1.60;;
8592;SDS011;4334;49.982;8.398;2023-02-27T04:38:02;3.73;;;2.00;;
8592;SDS011;4334;49.982;8.398;2023-02-27T04:40:37;2.57;;;1.73;;
8592;SDS011;4334;49.982;8.398;2023-02-27T04:43:10;2.53;;;1.70;;
8592;SDS011;4334;49.982;8.398;2023-02-27T04:45:39;3.60;;;1.67;;
8592;SDS011;4334;49.982;8.398;2023-02-27T04:48:09;6.10;;;1.90;;
8592;SDS011;4334;49.982;8.398;2023-02-27T04:50:43;2.67;;;1.70;;
8592;SDS011;4334;49.982;8.398;2023-02-27T04:53:15;6.07;;;1.80;;
8592;SDS011;4334;49.982;8.398;2023-02-27T04:55:46;3.00;;;1.53;;
8592;SDS011;4334;49.982;8.398;2023-02-27T04:58:18;3.83;;;1.73;;
8592;SDS011;4334;49.982;8.398;2023-02-27T05:00:49;2.63;;;1.60;;
8592;SDS011;4334;49.982;8.398;2023-02-27T05:03:21;3.57;;;1.70;;
8592;SDS011;4334;49.982;8.398;2023-02-27T05:05:50;3.23;;;1.60;;
8592;SDS011;4334;49.982;8.398;2023-02-27T05:08:22;3.90;;;1.70;;
8592;SDS011;4334;49.982;8.398;2023-02-27T05:10:55;2.93;;;1.50;;
8592;SDS011;4334;49.982;8.398;2023-02-27T05:13:29;2.90;;;1.80;;
8592;SDS011;4334;49.982;8.398;2023-02-27T05:16:01;4.03;;;1.80;;
8592;SDS011;4334;49.982;8.398;2023-02-27T05:18:32;3.97;;;1.70;;
8592;SDS011;4334;49.982;8.398;2023-02-27T05:21:00;2.53;;;1.70;;
8592;SDS011;4334;49.982;8.398;2023-02-27T05:23:43;2.23;;;1.50;;
8592;SDS011;4334;49.982;8.398;2023-02-27T05:26:21;2.30;;;1.50;;
8592;SDS011;4334;49.982;8.398;2023-02-27T05:28:59;3.60;;;1.60;;
8592;SDS011;4334;49.982;8.398;2023-02-27T05:31:32;2.80;;;1.60;;
8592;SDS011;4334;49.982;8.398;2023-02-27T05:34:09;4.53;;;1.80;;
8592;SDS011;4334;49.982;8.398;2023-02-27T05:36:41;4.23;;;1.80;;
8592;SDS011;4334;49.982;8.398;2023-02-27T05:39:12;5.97;;;1.97;;
8592;SDS011;4334;49.982;8.398;2023-02-27T05:41:42;3.37;;;1.77;;
8592;SDS011;4334;49.982;8.398;2023-02-27T05:44:16;3.60;;;1.90;;
8592;SDS011;4334;49.982;8.398;2023-02-27T05:46:47;2.33;;;1.53;;
8592;SDS011;4334;49.982;8.398;2023-02-27T05:49:19;3.47;;;1.80;;
8592;SDS011;4334;49.982;8.398;2023-02-27T05:51:50;2.47;;;1.80;;
8592;SDS011;4334;49.982;8.398;2023-02-27T05:54:21;2.50;;;1.80;;
8592;SDS011;4334;49.982;8.398;2023-02-27T05:56:54;6.37;;;2.30;;
8592;SDS011;4334;49.982;8.398;2023-02-27T05:59:26;5.20;;;1.80;;
8592;SDS011;4334;49.982;8.398;2023-02-27T06:01:57;4.67;;;1.93;;
8592;SDS011;4334;49.982;8.398;2023-02-27T06:04:24;3.70;;;1.80;;
8592;SDS011;4334;49.982;8.398;2023-02-27T06:06:51;3.23;;;1.63;;
8592;SDS011;4334;49.982;8.398;2023-02-27T06:09:18;5.70;;;1.80;;
8592;SDS011;4334;49.982;8.398;2023-02-27T06:11:46;2.63;;;1.83;;
8592;SDS011;4334;49.982;8.398;2023-02-27T06:14:13;1.90;;;1.57;;
8592;SDS011;4334;49.982;8.398;2023-02-27T06:16:41;5.43;;;2.00;;
8592;SDS011;4334;49.982;8.398;2023-02-27T06:19:07;3.27;;;1.90;;
8592;SDS011;4334;49.982;8.398;2023-02-27T06:21:34;4.17;;;1.97;;
8592;SDS011;4334;49.982;8.398;2023-02-27T06:24:01;3.80;;;1.80;;
8592;SDS011;4334;49.982;8.398;2023-02-27T06:26:28;3.53;;;2.03;;
8592;SDS011;4334;49.982;8.398;2023-02-27T06:28:55;2.40;;;1.87;;
8592;SDS011;4334;49.982;8.398;2023-02-27T06:31:22;3.67;;;2.00;;
8592;SDS011;4334;49.982;8.398;2023-02-27T06:33:50;7.10;;;1.87;;
8592;SDS011;4334;49.982;8.398;2023-02-27T06:36:17;2.90;;;1.80;;
8592;SDS011;4334;49.982;8.398;2023-02-27T06:38:43;3.77;;;1.80;;
8592;SDS011;4334;49.982;8.398;2023-02-27T06:41:10;2.93;;;1.80;;
8592;SDS011;4334;49.982;8.398;2023-02-27T06:43:37;2.87;;;1.80;;
8592;SDS011;4334;49.982;8.398;2023-02-27T06:46:04;4.33;;;1.70;;
8592;SDS011;4334;49.982;8.398;2023-02-27T06:48:31;7.17;;;2.83;;
8592;SDS011;4334;49.982;8.398;2023-02-27T06:50:59;17.17;;;5.70;;
8592;SDS011;4334;49.982;8.398;2023-02-27T06:53:27;7.63;;;2.30;;
8592;SDS011;4334;49.982;8.398;2023-02-27T06:55:54;2.70;;;1.90;;
8592;SDS011;4334;49.982;8.398;2023-02-27T06:58:21;2.67;;;1.87;;
8592;SDS011;4334;49.982;8.398;2023-02-27T07:00:49;3.73;;;2.40;;
8592;SDS011;4334;49.982;8.398;2023-02-27T07:03:16;3.63;;;1.87;;
8592;SDS011;4334;49.982;8.398;2023-02-27T07:05:43;4.87;;;2.07;;
8592;SDS011;4334;49.982;8.398;2023-02-27T07:08:11;2.43;;;1.60;;
8592;SDS011;4334;49.982;8.398;2023-02-27T07:10:41;2.87;;;1.90;;
8592;SDS011;4334;49.982;8.398;2023-02-27T07:13:11;3.37;;;1.73;;
8592;SDS011;4334;49.982;8.398;2023-02-27T07:15:37;4.57;;;2.03;;
8592;SDS011;4334;49.982;8.398;2023-02-27T07:18:04;3.77;;;1.83;;
8592;SDS011;4334;49.982;8.398;2023-02-27T07:20:31;4.33;;;2.10;;
8592;SDS011;4334;49.982;8.398;2023-02-27T07:22:58;5.27;;;2.27;;
8592;SDS011;4334;49.982;8.398;2023-02-27T07:25:26;8.23;;;2.23;;
8592;SDS011;4334;49.982;8.398;2023-02-27T07:27:53;3.40;;;2.10;;
8592;SDS011;4334;49.982;8.398;2023-02-27T07:30:20;4.80;;;2.20;;
8592;SDS011;4334;49.982;8.398;2023-02-27T07:36:09;3.50;;;2.20;;
8592;SDS011;4334;49.982;8.398;2023-02-27T07:38:36;3.97;;;2.17;;
8592;SDS011;4334;49.982;8.398;2023-02-27T07:41:04;4.43;;;2.07;;
8592;SDS011;4334;49.982;8.398;2023-02-27T07:43:31;3.07;;;2.07;;
8592;SDS011;4334;49.982;8.398;2023-02-27T07:45:58;7.97;;;2.30;;
8592;SDS011;4334;49.982;8.398;2023-02-27T07:48:28;3.87;;;2.00;;
8592;SDS011;4334;49.982;8.398;2023-02-27T07:50:54;4.13;;;2.33;;
8592;SDS011;4334;49.982;8.398;2023-02-27T07:53:21;4.70;;;2.10;;
8592;SDS011;4334;49.982;8.398;2023-02-27T07:55:48;3.57;;;1.97;;
8592;SDS011;4334;49.982;8.398;2023-02-27T07:58:16;3.13;;;2.07;;
8592;SDS011;4334;49.982;8.398;2023-02-27T08:00:43;2.47;;;1.90;;
8592;SDS011;4334;49.982;8.398;2023-02-27T08:03:10;3.73;;;2.00;;
8592;SDS011;4334;49.982;8.398;2023-02-27T08:05:37;2.90;;;1.93;;
8592;SDS011;4334;49.982;8.398;2023-02-27T08:08:04;2.27;;;1.67;;
8592;SDS011;4334;49.982;8.398;2023-02-27T08:10:31;3.03;;;1.90;;
8592;SDS011;4334;49.982;8.398;2023-02-27T08:12:57;2.83;;;2.03;;
8592;SDS011;4334;49.982;8.398;2023-02-27T08:15:25;2.63;;;1.70;;
8592;SDS011;4334;49.982;8.398;2023-02-27T08:17:52;2.30;;;1.70;;
8592;SDS011;4334;49.982;8.398;2023-02-27T08:20:19;2.83;;;1.80;;
8592;SDS011;4334;49.982;8.398;2023-02-27T08:22:46;3.47;;;1.97;;
8592;SDS011;4334;49.982;8.398;2023-02-27T08:25:13;3.20;;;2.00;;
8592;SDS011;4334;49.982;8.398;2023-02-27T08:27:40;4.53;;;1.93;;
8592;SDS011;4334;49.982;8.398;2023-02-27T08:30:08;4.27;;;1.90;;
8592;SDS011;4334;49.982;8.398;2023-02-27T08:32:38;2.33;;;1.90;;
8592;SDS011;4334;49.982;8.398;2023-02-27T08:35:05;3.07;;;1.70;;
8592;SDS011;4334;49.982;8.398;2023-02-27T08:37:32;3.77;;;2.00;;
8592;SDS011;4334;49.982;8.398;2023-02-27T08:39:59;4.40;;;2.20;;
8592;SDS011;4334;49.982;8.398;2023-02-27T08:42:26;4.70;;;2.20;;
8592;SDS011;4334;49.982;8.398;2023-02-27T08:44:53;3.60;;;1.90;;
8592;SDS011;4334;49.982;8.398;2023-02-27T08:47:20;2.60;;;1.90;;
8592;SDS011;4334;49.982;8.398;2023-02-27T08:49:48;4.17;;;2.30;;
8592;SDS011;4334;49.982;8.398;2023-02-27T08:52:15;2.97;;;1.90;;
8592;SDS011;4334;49.982;8.398;2023-02-27T08:54:41;2.87;;;1.90;;
8592;SDS011;4334;49.982;8.398;2023-02-27T08:57:08;3.90;;;1.93;;
8592;SDS011;4334;49.982;8.398;2023-02-27T08:59:35;6.93;;;2.23;;
8592;SDS011;4334;49.982;8.398;2023-02-27T09:02:02;4.77;;;2.03;;
8592;SDS011;4334;49.982;8.398;2023-02-27T09:04:29;3.23;;;2.30;;
8592;SDS011;4334;49.982;8.398;2023-02-27T09:06:57;3.80;;;2.17;;
8592;SDS011;4334;49.982;8.398;2023-02-27T09:09:23;2.00;;;1.70;;
8592;SDS011;4334;49.982;8.398;2023-02-27T09:11:51;2.67;;;1.90;;
8592;SDS011;4334;49.982;8.398;2023-02-27T09:14:18;5.33;;;2.00;;
8592;SDS011;4334;49.982;8.398;2023-02-27T09:16:45;3.93;;;2.13;;
8592;SDS011;4334;49.982;8.398;2023-02-27T09:19:12;2.83;;;1.83;;
8592;SDS011;4334;49.982;8.398;2023-02-27T09:21:39;3.00;;;2.10;;
8592;SDS011;4334;49.982;8.398;2023-02-27T09:24:07;2.27;;;2.00;;
8592;SDS011;4334;49.982;8.398;2023-02-27T09:26:35;3.77;;;2.30;;
8592;SDS011;4334;49.982;8.398;2023-02-27T09:29:02;2.83;;;2.20;;
8592;SDS011;4334;49.982;8.398;2023-02-27T09:31:29;3.07;;;2.20;;
8592;SDS011;4334;49.982;8.398;2023-02-27T09:33:55;2.60;;;1.90;;
8592;SDS011;4334;49.982;8.398;2023-02-27T09:36:22;3.13;;;2.00;;
8592;SDS011;4334;49.982;8.398;2023-02-27T09:38:49;2.90;;;2.17;;
8592;SDS011;4334;49.982;8.398;2023-02-27T09:41:27;3.37;;;2.37;;
8592;SDS011;4334;49.982;8.398;2023-02-27T09:44:06;3.30;;;2.20;;
8592;SDS011;4334;49.982;8.398;2023-02-27T09:46:46;2.50;;;1.90;;
8592;SDS011;4334;49.982;8.398;2023-02-27T09:49:14;3.23;;;1.97;;
8592;SDS011;4334;49.982;8.398;2023-02-27T09:51:45;2.33;;;2.00;;
8592;SDS011;4334;49.982;8.398;2023-02-27T09:54:12;2.37;;;1.80;;
8592;SDS011;4334;49.982;8.398;2023-02-27T09:56:41;2.60;;;2.00;;
8592;SDS011;4334;49.982;8.398;2023-02-27T09:59:15;2.00;;;1.70;;
8592;SDS011;4334;49.982;8.398;2023-02-27T10:01:57;4.10;;;1.90;;
8592;SDS011;4334;49.982;8.398;2023-02-27T10:04:33;2.07;;;1.80;;
8592;SDS011;4334;49.982;8.398;2023-02-27T10:07:06;2.13;;;1.80;;
8592;SDS011;4334;49.982;8.398;2023-02-27T10:09:42;2.63;;;1.90;;
8592;SDS011;4334;49.982;8.398;2023-02-27T10:12:21;2.23;;;1.90;;
8592;SDS011;4334;49.982;8.398;2023-02-27T10:15:00;2.73;;;1.90;;
8592;SDS011;4334;49.982;8.398;2023-02-27T10:17:32;2.17;;;1.80;;
8592;SDS011;4334;49.982;8.398;2023-02-27T10:20:02;2.60;;;1.90;;
8592;SDS011;4334;49.982;8.398;2023-02-27T10:22:35;1.73;;;1.63;;
8592;SDS011;4334;49.982;8.398;2023-02-27T10:25:08;2.40;;;1.83;;
8592;SDS011;4334;49.982;8.398;2023-02-27T10:27:39;3.57;;;1.77;;
8592;SDS011;4334;49.982;8.398;2023-02-27T10:30:15;3.77;;;1.90;;
8592;SDS011;4334;49.982;8.398;2023-02-27T10:32:44;4.50;;;1.93;;
8592;SDS011;4334;49.982;8.398;2023-02-27T10:35:16;2.70;;;2.10;;
8592;SDS011;4334;49.982;8.398;2023-02-27T10:37:53;3.10;;;1.73;;
8592;SDS011;4334;49.982;8.398;2023-02-27T10:40:24;2.10;;;1.90;;
8592;SDS011;4334;49.982;8.398;2023-02-27T10:42:53;2.20;;;1.80;;
8592;SDS011;4334;49.982;8.398;2023-02-27T10:45:21;4.33;;;1.90;;
8592;SDS011;4334;49.982;8.398;2023-02-27T10:47:48;2.20;;;1.63;;
8592;SDS011;4334;49.982;8.398;2023-02-27T10:50:25;3.63;;;1.73;;
8592;SDS011;4334;49.982;8.398;2023-02-27T10:52:54;3.53;;;1.60;;
8592;SDS011;4334;49.982;8.398;2023-02-27T10:55:24;2.87;;;1.70;;
8592;SDS011;4334;49.982;8.398;2023-02-27T10:57:55;2.57;;;1.40;;
8592;SDS011;4334;49.982;8.398;2023-02-27T11:00:25;4.40;;;1.70;;
8592;SDS011;4334;49.982;8.398;2023-02-27T11:02:57;2.97;;;1.87;;
8592;SDS011;4334;49.982;8.398;2023-02-27T11:05:25;1.80;;;1.60;;
8592;SDS011;4334;49.982;8.398;2023-02-27T11:07:53;2.77;;;1.70;;
8592;SDS011;4334;49.982;8.398;2023-02-27T11:10:22;2.43;;;1.90;;
8592;SDS011;4334;49.982;8.398;2023-02-27T11:13:00;1.97;;;1.60;;
8592;SDS011;4334;49.982;8.398;2023-02-27T11:15:29;2.67;;;1.70;;
8592;SDS011;4334;49.982;8.398;2023-02-27T11:20:49;3.83;;;1.80;;
8592;SDS011;4334;49.982;8.398;2023-02-27T11:23:17;4.37;;;1.87;;
8592;SDS011;4334;49.982;8.398;2023-02-27T11:25:46;2.00;;;1.60;;
8592;SDS011;4334;49.982;8.398;2023-02-27T11:28:19;2.80;;;1.50;;
8592;SDS011;4334;49.982;8.398;2023-02-27T11:30:54;2.93;;;1.80;;
8592;SDS011;4334;49.982;8.398;2023-02-27T11:33:24;2.20;;;1.70;;
8592;SDS011;4334;49.982;8.398;2023-02-27T11:35:52;2.23;;;1.50;;
8592;SDS011;4334;49.982;8.398;2023-02-27T11:38:21;3.17;;;1.87;;
8592;SDS011;4334;49.982;8.398;2023-02-27T11:40:51;1.77;;;1.57;;
8592;SDS011;4334;49.982;8.398;2023-02-27T11:43:22;1.70;;;1.60;;
8592;SDS011;4334;49.982;8.398;2023-02-27T11:45:52;4.73;;;1.60;;
8592;SDS011;4334;49.982;8.398;2023-02-27T11:48:23;2.53;;;1.87;;
8592;SDS011;4334;49.982;8.398;2023-02-27T11:51:04;2.03;;;1.63;;
8592;SDS011;4334;49.982;8.398;2023-02-27T11:53:44;2.40;;;1.57;;
8592;SDS011;4334;49.982;8.398;2023-02-27T11:56:40;2.57;;;1.67;;
8592;SDS011;4334;49.982;8.398;2023-02-27T11:59:15;1.87;;;1.67;;
8592;SDS011;4334;49.982;8.398;2023-02-27T12:04:17;2.43;;;1.73;;
8592;SDS011;4334;49.982;8.398;2023-02-27T12:06:50;1.67;;;1.50;;
8592;SDS011;4334;49.982;8.398;2023-02-27T12:09:26;2.17;;;1.70;;
8592;SDS011;4334;49.982;8.398;2023-02-27T12:12:08;2.00;;;1.53;;
8592;SDS011;4334;49.982;8.398;2023-02-27T12:14:46;2.03;;;1.60;;
8592;SDS011;4334;49.982;8.398;2023-02-27T12:17:19;2.43;;;1.30;;
8592;SDS011;4334;49.982;8.398;2023-02-27T12:19:55;4.30;;;1.70;;
8592;SDS011;4334;49.982;8.398;2023-02-27T12:22:32;1.93;;;1.70;;
8592;SDS011;4334;49.982;8.398;2023-02-27T12:25:03;2.57;;;1.80;;
8592;SDS011;4334;49.982;8.398;2023-02-27T12:27:37;2.80;;;1.63;;
8592;SDS011;4334;49.982;8.398;2023-02-27T12:30:13;1.63;;;1.50;;
8592;SDS011;4334;49.982;8.398;2023-02-27T12:32:45;2.47;;;1.70;;
8592;SDS011;4334;49.982;8.398;2023-02-27T12:35:19;3.73;;;1.60;;
8592;SDS011;4334;49.982;8.398;2023-02-27T12:37:49;2.33;;;1.80;;
8592;SDS011;4334;49.982;8.398;2023-02-27T12:40:16;2.53;;;1.63;;
8592;SDS011;4334;49.982;8.398;2023-02-27T12:42:51;1.93;;;1.30;;
8592;SDS011;4334;49.982;8.398;2023-02-27T12:48:31;1.60;;;1.43;;
8592;SDS011;4334;49.982;8.398;2023-02-27T12:51:11;1.90;;;1.60;;
8592;SDS011;4334;49.982;8.398;2023-02-27T12:53:57;1.80;;;1.50;;
8592;SDS011;4334;49.982;8.398;2023-02-27T12:56:39;1.40;;;1.30;;
8592;SDS011;4334;49.982;8.398;2023-02-27T12:59:14;2.13;;;1.30;;
8592;SDS011;4334;49.982;8.398;2023-02-27T13:01:52;1.87;;;1.30;;
8592;SDS011;4334;49.982;8.398;2023-02-27T13:04:28;1.50;;;1.40;;
8592;SDS011;4334;49.982;8.398;2023-02-27T13:07:03;1.93;;;1.50;;
8592;SDS011;4334;49.982;8.398;2023-02-27T13:09:37;1.47;;;1.20;;
8592;SDS011;4334;49.982;8.398;2023-02-27T13:12:13;1.40;;;1.17;;
8592;SDS011;4334;49.982;8.398;2023-02-27T13:14:47;2.10;;;1.13;;
8592;SDS011;4334;49.982;8.398;2023-02-27T13:17:21;2.23;;;1.27;;
8592;SDS011;4334;49.982;8.398;2023-02-27T13:19:51;1.87;;;1.33;;
8592;SDS011;4334;49.982;8.398;2023-02-27T13:22:26;1.40;;;1.30;;
8592;SDS011;4334;49.982;8.398;2023-02-27T13:25:00;1.30;;;1.07;;
8592;SDS011;4334;49.982;8.398;2023-02-27T13:27:35;2.70;;;1.10;;
8592;SDS011;4334;49.982;8.398;2023-02-27T13:30:13;1.13;;;1.03;;
8592;SDS011;4334;49.982;8.398;2023-02-27T13:32:47;1.00;;;1.00;;
8592;SDS011;4334;49.982;8.398;2023-02-27T13:35:21;1.20;;;1.10;;
8592;SDS011;4334;49.982;8.398;2023-02-27T13:37:54;1.97;;;1.20;;
8592;SDS011;4334;49.982;8.398;2023-02-27T13:40:30;1.40;;;1.03;;
8592;SDS011;4334;49.982;8.398;2023-02-27T13:42:59;0.90;;;0.90;;
8592;SDS011;4334;49.982;8.398;2023-02-27T13:45:48;1.27;;;1.10;;
8592;SDS011;4334;49.982;8.398;2023-02-27T13:48:38;1.30;;;1.20;;
8592;SDS011;4334;49.982;8.398;2023-02-27T13:54:21;1.10;;;1.00;;
8592;SDS011;4334;49.982;8.398;2023-02-27T13:57:04;1.10;;;1.00;;
8592;SDS011;4334;49.982;8.398;2023-02-27T13:59:55;1.93;;;1.20;;
8592;SDS011;4334;49.982;8.398;2023-02-27T14:02:29;1.87;;;1.10;;
8592;SDS011;4334;49.982;8.398;2023-02-27T14:05:02;1.70;;;1.20;;
8592;SDS011;4334;49.982;8.398;2023-02-27T14:07:32;1.83;;;1.37;;
8592;SDS011;4334;49.982;8.398;2023-02-27T14:10:17;1.40;;;1.20;;
8592;SDS011;4334;49.982;8.398;2023-02-27T14:12:46;1.83;;;1.30;;
8592;SDS011;4334;49.982;8.398;2023-02-27T14:24:16;1.83;;;1.20;;
8592;SDS011;4334;49.982;8.398;2023-02-27T14:26:44;2.07;;;1.00;;
8592;SDS011;4334;49.982;8.398;2023-02-27T14:29:13;1.47;;;1.20;;
8592;SDS011;4334;49.982;8.398;2023-02-27T14:31:44;1.27;;;1.17;;
8592;SDS011;4334;49.982;8.398;2023-02-27T14:34:12;1.30;;;0.90;;
8592;SDS011;4334;49.982;8.398;2023-02-27T14:36:43;1.20;;;1.10;;
8592;SDS011;4334;49.982;8.398;2023-02-27T14:39:20;1.83;;;1.30;;
8592;SDS011;4334;49.982;8.398;2023-02-27T14:41:52;3.63;;;1.30;;
8592;SDS011;4334;49.982;8.398;2023-02-27T14:44:26;1.17;;;1.07;;
8592;SDS011;4334;49.982;8.398;2023-02-27T14:46:54;2.00;;;1.57;;
8592;SDS011;4334;49.982;8.398;2023-02-27T14:49:24;3.93;;;2.10;;
8592;SDS011;4334;49.982;8.398;2023-02-27T14:51:53;2.97;;;1.60;;
8592;SDS011;4334;49.982;8.398;2023-02-27T14:54:22;2.90;;;1.93;;
8592;SDS011;4334;49.982;8.398;2023-02-27T14:56:54;2.83;;;1.60;;
8592;SDS011;4334;49.982;8.398;2023-02-27T14:59:22;2.90;;;1.43;;
8592;SDS011;4334;49.982;8.398;2023-02-27T15:01:50;3.67;;;1.97;;
8592;SDS011;4334;49.982;8.398;2023-02-27T15:04:18;1.87;;;1.40;;
8592;SDS011;4334;49.982;8.398;2023-02-27T15:06:47;1.37;;;1.00;;
8592;SDS011;4334;49.982;8.398;2023-02-27T15:09:18;2.70;;;1.50;;
8592;SDS011;4334;49.982;8.398;2023-02-27T15:11:49;1.70;;;1.00;;
8592;SDS011;4334;49.982;8.398;2023-02-27T15:14:18;1.60;;;1.20;;
8592;SDS011;4334;49.982;8.398;2023-02-27T15:16:51;0.93;;;0.93;;
8592;SDS011;4334;49.982;8.398;2023-02-27T15:19:20;1.30;;;1.00;;
8592;SDS011;4334;49.982;8.398;2023-02-27T15:21:48;2.27;;;1.30;;
8592;SDS011;4334;49.982;8.398;2023-02-27T15:24:20;1.43;;;1.07;;
8592;SDS011;4334;49.982;8.398;2023-02-27T15:26:51;1.20;;;1.03;;
8592;SDS011;4334;49.982;8.398;2023-02-27T15:29:21;2.00;;;1.37;;
8592;SDS011;4334;49.982;8.398;2023-02-27T15:31:51;2.27;;;1.60;;
8592;SDS011;4334;49.982;8.398;2023-02-27T15:34:19;1.77;;;1.40;;
8592;SDS011;4334;49.982;8.398;2023-02-27T15:36:47;1.30;;;1.20;;
8592;SDS011;4334;49.982;8.398;2023-02-27T15:39:17;1.63;;;1.20;;
8592;SDS011;4334;49.982;8.398;2023-02-27T15:41:48;1.53;;;1.27;;
8592;SDS011;4334;49.982;8.398;2023-02-27T15:44:17;1.37;;;1.27;;
8592;SDS011;4334;49.982;8.398;2023-02-27T15:46:46;1.87;;;1.30;;
8592;SDS011;4334;49.982;8.398;2023-02-27T15:49:14;1.10;;;1.00;;
8592;SDS011;4334;49.982;8.398;2023-02-27T15:51:42;1.50;;;1.10;;
8592;SDS011;4334;49.982;8.398;2023-02-27T15:54:12;1.57;;;1.30;;
8592;SDS011;4334;49.982;8.398;2023-02-27T15:56:39;1.30;;;1.20;;
8592;SDS011;4334;49.982;8.398;2023-02-27T15:59:08;1.27;;;1.17;;
8592;SDS011;4334;49.982;8.398;2023-02-27T16:01:40;1.97;;;1.33;;
8592;SDS011;4334;49.982;8.398;2023-02-27T16:04:13;1.10;;;1.00;;
8592;SDS011;4334;49.982;8.398;2023-02-27T16:06:49;3.77;;;1.43;;
8592;SDS011;4334;49.982;8.398;2023-02-27T16:09:23;1.67;;;1.30;;
8592;SDS011;4334;49.982;8.398;2023-02-27T16:14:43;1.77;;;1.47;;
8592;SDS011;4334;49.982;8.398;2023-02-27T16:17:24;2.00;;;1.37;;
8592;SDS011;4334;49.982;8.398;2023-02-27T16:19:53;1.07;;;0.97;;
8592;SDS011;4334;49.982;8.398;2023-02-27T16:22:21;1.27;;;1.10;;